ADDS METAR Data INFO
IDs: Format: Raw Decoded Include TAF

Data at: 0306 UTC 17 Jan 2018

KSYR 170254Z 07004KT 2 1/2SM -SN BR OVC022 M04/M04 A3037 RMK AO2 SLP288 P0001 60004 T10441044 58005
KSYR 170235Z 09003KT 2SM -SN BR FEW008 OVC022 M04/M04 A3037 RMK AO2 P0001 T10441044
KSYR 170216Z 09004KT 1 1/2SM -SN BR FEW008 OVC022 M04/M04 A3038 RMK AO2 P0001 T10441044
KSYR 170154Z 00000KT 1 3/4SM -SN BR OVC024 M04/M04 A3038 RMK AO2 SLP293 P0002 T10441044
KSYR 170058Z 00000KT 1 3/4SM -SN BR OVC024 M04/M04 A3039 RMK AO2 P0000 T10441044
KSYR 170054Z 00000KT 2SM -SN BR OVC030 M04/M04 A3038 RMK AO2 SLP293 P0001 T10441044
KSYR 162354Z 00000KT 2 1/2SM -SN BR OVC030 M04/M04 A3038 RMK AO2 SLP293 4/009 P0001 60003 T10441044 11022 21044 51002
KSYR 162254Z 00000KT 2 1/2SM -SN BR OVC030 M04/M04 A3038 RMK AO2 SLP293 P0001 T10391039
KSYR 162213Z 00000KT 2 1/2SM -SN BR OVC030 M04/M04 A3038 RMK AO2 P0000 T10391039
KSYR 162201Z 00000KT 1 1/2SM -SN BR OVC030 M03/M03 A3038 RMK AO2 P0000 T10331033
KSYR 162154Z 00000KT 2SM -SN BR BKN026 OVC037 M04/M04 A3038 RMK AO2 SLP292 P0001 T10391039
KSYR 162101Z 25004KT 2SM -SN BR BKN026 OVC037 M03/M04 A3038 RMK AO2 P0000 T10331044
KSYR 162054Z 26003KT 2 1/2SM -SN BR BKN032 OVC040 M03/M04 A3038 RMK AO2 SLP291 P0000 60000 T10331044 53002
KSYR 162017Z 20003KT 2 1/2SM -SN OVC035 M03/M06 A3038 RMK AO2 P0000 T10281056
KSYR 161954Z 26004KT 10SM -SN FEW025 BKN050 OVC065 M02/M06 A3037 RMK AO2 SNB52 SLP289 P0000 T10221061
KSYR 161854Z 24004KT 10SM FEW024 BKN038 OVC150 M02/M06 A3036 RMK AO2 SLP283 T10221056
KSYR 161754Z 22006KT 10SM SCT025 BKN034 OVC050 M02/M06 A3037 RMK AO2 SLP289 4/008 933012 60000 T10221056 11022 21089 58011
KSYR 161725Z 00000KT 10SM SCT026 BKN030 OVC055 M04/M06 A3038 RMK AO2 T10391061
KSYR 161654Z 00000KT 10SM BKN027 BKN035 OVC050 M04/M06 A3039 RMK AO2 SNE1559 SLP295 P0000 T10441061
KSYR 161603Z 00000KT 9SM BKN028 OVC055 M06/M07 A3040 RMK AO2 SNE1559 P0000 T10611072
KSYR 161554Z 00000KT 9SM -SN SCT028 BKN035 OVC055 M07/M07 A3041 RMK AO2 SLP301 PCPN VERY LIGHT P0000 T10671072
KSYR 161454Z 00000KT 5SM -SN BR FEW034 SCT050 BKN070 M08/M08 A3041 RMK AO2 SLP300 P0000 60000 T10781083 53006
KSYR 161354Z 09004KT 7SM -SN OVC030 M08/M09 A3040 RMK AO2 SLP299 PCPN VERY LIGHT P0000 T10831089
KSYR 161306Z 09003KT 8SM -SN OVC030 M08/M09 A3039 RMK AO2 P0000 T10831089
KSYR 161254Z 08005KT 6SM -SN BR BKN028 OVC032 M08/M09 A3038 RMK AO2 SLP294 P0000 T10831089
KSYR 161154Z 09004KT 9SM -SN OVC029 M09/M09 A3039 RMK AO2 SLP295 4/008 P0000 60003 70009 T10891089 11083 21089 53008 $
KSYR 161059Z 08003KT 4SM -SN BR OVC029 M09/M09 A3037 RMK AO2 P0000 T10891089
KSYR 161054Z 08003KT 2 1/2SM -SN BR OVC031 M09/M09 A3037 RMK AO2 SLP289 VIS 2 1/2 V 3 P0000 T10891089
KSYR 161028Z 06004KT 2 1/2SM -SN BR OVC031 M09/M09 A3037 RMK AO2 VIS 2 1/2 V 3 P0000 T10891094
KSYR 160954Z 06004KT 4SM -SN BR OVC040 M09/M09 A3036 RMK AO2 SLP286 P0000 T10891094
KSYR 160854Z 08004KT 4SM -SN BR OVC036 M09/M09 A3036 RMK AO2 SLP287 P0001 60003 T10891089 56001
KSYR 160833Z 08006KT 3SM -SN BR OVC032 M09/M09 A3037 RMK AO2 P0000 T10891089
KSYR 160754Z 07004KT 2SM -SN BR OVC027 M08/M09 A3037 RMK AO2 SLP288 P0001 T10831089
KSYR 160731Z 08006KT 1 3/4SM -SN BR OVC028 M08/M09 A3036 RMK AO2 P0001 T10831089
KSYR 160721Z 07006KT 2SM -SN BR OVC030 M08/M09 A3036 RMK AO2 P0000 T10831089
KSYR 160654Z 08005KT 1 3/4SM -SN BR OVC025 M08/M09 A3036 RMK AO2 SLP286 P0001 T10831089
KSYR 160647Z 07005KT 1 3/4SM -SN BR OVC026 M08/M09 A3036 RMK AO2 P0001 T10831089
KSYR 160554Z 08006KT 2SM -SN BR OVC028 M09/M09 A3037 RMK AO2 SLP289 4/008 P0002 60006 T10891094 11083 21089 58018
KSYR 160542Z 07006KT 1 3/4SM -SN BR OVC023 M09/M09 A3038 RMK AO2 P0001 T10891094
KSYR 160454Z 09007KT 1SM R28/P6000FT -SN BR VV015 M09/M09 A3039 RMK AO2 SLP297 P0003 T10891089 410831211
KSYR 160423Z 09007KT 1 1/2SM -SN BR OVC020 M09/M09 A3040 RMK AO2 P0001 T10891094
KSYR 160357Z 08008KT 2SM -SN BR OVC022 M08/M09 A3041 RMK AO2 P0000 T10831094
KSYR 160354Z 09007KT 3SM -SN BR OVC023 M08/M09 A3041 RMK AO2 SLP304 P0000 T10831094
KSYR 160301Z 09008KT 3SM -SN BR OVC027 M08/M10 A3042 RMK AO2 P0000 T10831100
KSYR 160254Z 09007KT 3SM -SN BR OVC032 M08/M10 A3042 RMK AO2 SLP308 P0001 60001 T10831100 55015
KSYR 160154Z 08010KT 5SM -SN OVC034 M08/M11 A3042 RMK AO2 SNB33 SLP307 P0000 T10831111
KSYR 160054Z 08009KT 10SM OVC080 M09/M12 A3045 RMK AO2 SLP318 T10891117
KSYR 152354Z 08009KT 10SM BKN031 OVC080 M09/M12 A3047 RMK AO2 SLP324 4/007 T10891122 11089 21100 56009
KSYR 152254Z 08012KT 10SM OVC065 M09/M12 A3047 RMK AO2 SLP325 T10891122
KSYR 152154Z 09013KT 10SM BKN033 OVC100 M09/M12 A3048 RMK AO2 SLP328 T10941122
KSYR 152054Z 09012KT 10SM BKN037 OVC140 M09/M13 A3049 RMK AO2 SLP334 T10891128 56019
KSYR 151954Z 08012KT 10SM SCT037 OVC140 M09/M13 A3050 RMK AO2 SLP336 T10941128
KSYR 151854Z 09012KT 10SM OVC035 M09/M13 A3051 RMK AO2 SLP338 T10891128
KSYR 151754Z 08009KT 10SM BKN035 BKN150 M10/M14 A3055 RMK AO2 SLP353 4/008 933012 T11001139 11100 21206 58034
KSYR 151654Z 09009KT 10SM FEW070 SCT200 M11/M16 A3059 RMK AO2 SLP367 T11111156
KSYR 151554Z 08011KT 10SM SCT200 M13/M17 A3063 RMK AO2 SLP380 T11331167